createdAt,value
2023-01-01T00:03:37.434Z,9.02
2023-01-01T00:08:40.804Z,7.65
2023-01-01T00:13:44.437Z,8.45
2023-01-01T00:18:46.195Z,5.95
2023-01-01T00:23:48.094Z,6.57
2023-01-01T00:28:49.839Z,5.13
2023-01-01T00:33:53.456Z,6.72
2023-01-01T00:38:55.650Z,4.47
2023-01-01T00:43:57.501Z,10.02
2023-01-01T00:48:59.361Z,6.80
2023-01-01T00:54:01.134Z,8.00
2023-01-01T00:59:02.893Z,8.15
2023-01-01T01:04:05.061Z,7.25
2023-01-01T01:09:07.888Z,10.52
2023-01-01T01:14:09.707Z,13.57
2023-01-01T01:19:15.474Z,10.65
2023-01-01T01:24:17.609Z,5.43
2023-01-01T01:29:19.391Z,5.30
2023-01-01T01:34:27.194Z,9.27
2023-01-01T01:39:29.575Z,4.97
2023-01-01T01:44:49.382Z,7.03
2023-01-01T01:49:57.233Z,4.68
2023-01-01T01:55:01.558Z,8.13
2023-01-01T02:00:10.736Z,10.75
2023-01-01T02:05:13.723Z,10.00
2023-01-01T02:10:15.643Z,6.88
2023-01-01T02:15:17.530Z,7.47
2023-01-01T02:20:29.122Z,5.55
2023-01-01T10:31:45.546Z,39.33
2023-01-01T10:36:47.619Z,27.13
2023-01-01T10:41:49.627Z,25.20
2023-01-01T10:46:56.416Z,29.23
2023-01-01T10:51:59.204Z,31.30
2023-01-01T10:57:17.770Z,26.45
2023-01-01T11:02:24.856Z,28.80
2023-01-01T11:07:33.687Z,33.20
2023-01-01T11:18:05.578Z,40.80
2023-01-01T11:28:22.472Z,30.40
2023-01-01T11:33:24.863Z,20.15
2023-01-01T11:38:30.222Z,20.30
2023-01-01T11:43:39.978Z,19.98
2023-01-01T11:48:43.788Z,19.50
2023-01-01T11:53:46.197Z,16.67
2023-01-01T11:59:00.395Z,21.25
2023-01-01T12:04:02.145Z,26.05
2023-01-01T12:09:30.283Z,23.90
2023-01-01T12:15:07.474Z,22.70
2023-01-01T12:20:36.985Z,18.33
2023-01-01T12:25:46.468Z,14.68
2023-01-01T12:31:20.016Z,18.13
2023-01-01T12:36:37.096Z,16.10
2023-01-01T12:42:02.365Z,13.85
2023-01-01T12:47:28.328Z,15.88
2023-01-01T12:53:01.022Z,16.67
2023-01-01T12:58:20.245Z,16.02
2023-01-01T13:03:28.201Z,16.00
2023-01-01T13:13:32.676Z,18.50
2023-01-01T13:18:35.820Z,15.80
2023-01-01T13:23:40.270Z,27.15
2023-01-01T13:28:42.047Z,24.48
2023-01-01T13:33:43.794Z,20.55
2023-01-01T13:38:53.387Z,16.73
2023-01-01T13:44:01.230Z,15.85
2023-01-01T13:49:15.830Z,18.15
2023-01-01T13:54:52.636Z,17.80
2023-01-01T14:00:13.245Z,18.42
2023-01-01T14:05:31.998Z,16.92
2023-01-01T14:10:36.118Z,17.33
2023-01-01T14:15:41.654Z,13.55
2023-01-01T14:20:51.366Z,16.77
2023-01-01T14:25:53.292Z,13.70
2023-01-01T14:30:56.523Z,12.18
2023-01-01T14:36:04.549Z,14.27
2023-01-01T14:41:27.695Z,11.25
2023-01-01T14:46:30.744Z,12.50
2023-01-01T14:51:32.795Z,15.70
2023-01-01T14:56:37.252Z,21.55
2023-01-01T15:01:42.661Z,17.98
2023-01-01T15:06:45.210Z,15.82
2023-01-01T15:11:47.574Z,16.48
2023-01-01T15:17:10.193Z,15.45
2023-01-01T15:22:27.450Z,14.25
2023-01-01T15:27:32.250Z,11.73
2023-01-01T15:32:38.503Z,18.45
2023-01-01T15:37:49.738Z,12.48
2023-01-01T15:42:57.363Z,11.70
2023-01-01T15:48:22.050Z,14.77
2023-01-01T15:53:27.133Z,13.90
2023-01-01T15:58:48.470Z,13.40
2023-01-01T16:03:57.639Z,13.43
2023-01-01T16:08:59.367Z,13.52
2023-01-01T16:14:01.086Z,14.27
2023-01-01T16:19:02.913Z,11.13
2023-01-01T16:24:06.175Z,15.35
2023-01-01T16:29:07.985Z,12.60
2023-01-01T16:34:15.943Z,16.42
2023-01-01T16:39:17.834Z,15.25
2023-01-01T16:44:19.555Z,13.13
2023-01-01T16:49:21.284Z,13.75
2023-01-01T16:54:23.061Z,12.32
2023-01-01T16:59:24.912Z,13.68
2023-01-01T17:04:28.122Z,12.95
2023-01-01T17:09:29.899Z,13.55
2023-01-01T17:14:31.617Z,12.00
2023-01-01T17:19:33.395Z,17.83
2023-01-01T17:24:35.134Z,14.23
2023-01-01T17:29:36.864Z,15.57
2023-01-01T17:34:38.640Z,10.63
2023-01-01T17:39:40.410Z,11.93
2023-01-01T17:44:42.379Z,14.63
2023-01-01T17:49:44.117Z,15.65
2023-01-01T17:54:45.868Z,14.02
2023-01-01T17:59:48.107Z,10.32
2023-01-01T18:04:50.386Z,15.63
2023-01-01T18:09:52.112Z,12.90
2023-01-01T18:14:53.811Z,11.65
2023-01-01T18:19:55.540Z,11.90
2023-01-01T18:24:57.500Z,16.70
2023-01-01T18:29:59.466Z,15.18
2023-01-01T18:35:01.264Z,15.30
2023-01-01T18:40:11.100Z,15.20
2023-01-01T18:45:18.051Z,15.82
2023-01-01T18:50:27.502Z,16.00
2023-01-01T18:55:30.692Z,23.20
2023-01-01T19:00:35.911Z,23.13
2023-01-01T19:05:38.415Z,11.95
2023-01-01T19:11:03.217Z,15.55
2023-01-01T19:16:11.147Z,14.80
2023-01-01T19:21:12.920Z,12.98
2023-01-01T19:26:26.153Z,10.32
2023-01-01T19:31:28.056Z,15.07
2023-01-01T19:36:29.875Z,15.57
2023-01-01T19:41:31.654Z,9.38
2023-01-01T19:46:33.745Z,17.95
2023-01-01T19:51:35.923Z,9.10
2023-01-01T19:56:38.208Z,8.73
2023-01-01T20:01:40.208Z,9.68
2023-01-01T20:06:42.442Z,9.63
2023-01-01T20:11:47.022Z,13.18
2023-01-01T20:16:53.378Z,8.97
2023-01-01T20:22:17.796Z,21.77
2023-01-01T20:27:24.529Z,10.15
2023-01-01T20:32:28.674Z,9.43
2023-01-01T20:37:39.482Z,8.07
2023-01-01T20:42:41.359Z,11.05
2023-01-01T20:47:45.962Z,8.93
2023-01-01T20:52:47.859Z,6.57
2023-01-01T20:57:49.697Z,7.75
2023-01-01T21:02:51.786Z,6.53
2023-01-01T21:07:53.558Z,7.35
2023-01-01T21:12:55.328Z,5.57
2023-01-01T21:17:57.459Z,4.88
2023-01-01T21:23:00.421Z,6.35
2023-01-01T21:28:02.516Z,3.88
2023-01-01T21:33:15.181Z,5.90
2023-01-01T21:38:23.291Z,4.97
2023-01-01T21:43:35.437Z,4.63
2023-01-01T21:48:42.107Z,4.13
2023-01-01T21:53:43.947Z,8.48
2023-01-01T21:59:06.663Z,5.05
2023-01-01T22:04:11.708Z,4.20
2023-01-01T22:09:22.596Z,6.50
2023-01-01T22:14:39.761Z,6.10
2023-01-01T22:19:44.053Z,4.22
2023-01-01T22:24:54.626Z,5.57
2023-01-01T22:30:19.096Z,6.57
2023-01-01T22:35:28.349Z,5.53
2023-01-01T22:40:40.746Z,4.32
2023-01-01T22:45:48.670Z,4.38
2023-01-01T22:50:52.308Z,5.88
2023-01-01T22:55:54.176Z,5.10
2023-01-01T23:00:55.923Z,3.97
2023-01-01T23:05:57.767Z,5.93
2023-01-01T23:11:00.557Z,5.10
2023-01-01T23:16:02.690Z,6.68
2023-01-01T23:21:11.131Z,5.13
2023-01-01T23:26:13.053Z,4.95
2023-01-01T23:31:22.759Z,5.05
2023-01-01T23:36:28.408Z,5.75
2023-01-01T23:41:30.208Z,11.25
2023-01-01T23:46:34.456Z,4.60
2023-01-01T23:51:38.065Z,7.85
2023-01-01T23:56:39.771Z,4.22
